Time;durP1;ratioP1;P1;durP2;ratioP2;P2;SDS_P1;SDS_P2;PMS_P1;PMS_P2;Temp;Humidity;BMP_temperature;BMP_pressure;BME280_temperature;BME280_humidity;BME280_pressure;Samples;Min_cycle;Max_cycle;Signal;HPM_P1;HPM_P2
2023/03/18 00:00:32;;;;;;;7.47;2.57;;;10.90;80.70;;;;;;478813;248;28212;-75
2023/03/18 00:02:32;;;;;;;3.53;2.00;;;10.80;80.80;;;;;;478757;248;28171;-75
2023/03/18 00:04:33;;;;;;;4.10;2.80;;;10.90;80.80;;;;;;478802;248;28182;-75
2023/03/18 00:06:34;;;;;;;3.70;2.43;;;10.90;81.00;;;;;;478864;248;27993;-75
2023/03/18 00:08:36;;;;;;;2.90;2.30;;;10.90;80.80;;;;;;478864;248;28559;-75
2023/03/18 00:10:37;;;;;;;3.30;2.47;;;10.90;81.40;;;;;;483891;245;28685;-75
2023/03/18 00:12:38;;;;;;;6.90;2.37;;;10.90;82.20;;;;;;478026;249;28725;-74
2023/03/18 00:14:39;;;;;;;2.67;2.00;;;10.90;82.40;;;;;;477937;249;28164;-75
2023/03/18 00:16:41;;;;;;;3.33;2.20;;;10.90;83.20;;;;;;478006;249;28208;-75
2023/03/18 00:18:42;;;;;;;3.37;1.93;;;10.90;83.80;;;;;;478013;249;28270;-75
2023/03/18 00:20:44;;;;;;;3.30;2.00;;;10.80;84.60;;;;;;477966;249;28162;-75
2023/03/18 00:22:45;;;;;;;4.37;2.17;;;10.80;85.60;;;;;;478022;249;27977;-75
2023/03/18 00:24:47;;;;;;;2.10;2.00;;;10.80;85.10;;;;;;477994;249;28715;-75
2023/03/18 00:26:47;;;;;;;6.50;3.70;;;10.80;85.10;;;;;;477906;249;28340;-75
2023/03/18 00:28:49;;;;;;;4.10;2.70;;;10.90;84.70;;;;;;478057;248;28242;-75
2023/03/18 00:30:50;;;;;;;6.00;2.80;;;10.80;86.40;;;;;;478000;249;28212;-75
2023/03/18 00:32:51;;;;;;;7.03;2.47;;;10.90;87.00;;;;;;478053;249;28792;-75
2023/03/18 00:34:52;;;;;;;4.83;2.90;;;10.80;89.20;;;;;;478008;249;28910;-75
2023/03/18 00:36:55;;;;;;;5.43;2.37;;;10.80;90.10;;;;;;477972;249;28690;-75
2023/03/18 00:39:02;;;;;;;2.97;2.53;;;10.70;90.40;;;;;;477940;249;28615;-75
2023/03/18 00:41:10;;;;;;;2.87;1.93;;;10.70;90.40;;;;;;477787;249;28190;-75
2023/03/18 00:43:06;;;;;;;2.60;1.87;;;10.70;91.10;;;;;;477451;249;28017;-75
2023/03/18 00:45:04;;;;;;;3.90;3.10;;;10.70;91.00;;;;;;477798;249;28525;-75
2023/03/18 00:47:05;;;;;;;5.73;2.37;;;10.60;91.90;;;;;;477989;249;28567;-75
2023/03/18 00:49:06;;;;;;;4.57;2.93;;;10.60;92.20;;;;;;478052;249;28655;-75
2023/03/18 00:51:07;;;;;;;4.63;2.30;;;10.50;93.30;;;;;;478030;249;28072;-75
2023/03/18 00:53:08;;;;;;;6.53;2.33;;;10.50;93.90;;;;;;477985;249;28309;-75
2023/03/18 00:55:10;;;;;;;3.40;2.80;;;10.40;93.70;;;;;;478003;249;28080;-75
2023/03/18 00:57:11;;;;;;;3.47;2.40;;;10.40;94.80;;;;;;477960;249;28196;-75
2023/03/18 00:59:12;;;;;;;2.30;1.93;;;10.40;95.30;;;;;;478013;249;28034;-75
2023/03/18 01:01:13;;;;;;;3.77;2.80;;;10.40;95.70;;;;;;478009;249;28001;-75
2023/03/18 01:03:15;;;;;;;2.83;2.20;;;10.40;96.80;;;;;;477963;249;28113;-75
2023/03/18 01:05:16;;;;;;;3.23;2.40;;;10.40;97.10;;;;;;478072;249;28085;-75
2023/03/18 01:07:18;;;;;;;5.50;3.00;;;10.40;97.20;;;;;;477960;249;28597;-75
2023/03/18 01:09:18;;;;;;;3.60;2.70;;;10.30;97.90;;;;;;477870;249;28617;-75
2023/03/18 01:11:20;;;;;;;4.50;2.63;;;10.30;98.30;;;;;;477983;249;28621;-75
2023/03/18 01:13:22;;;;;;;2.87;2.00;;;10.30;98.40;;;;;;477874;249;28343;-75
2023/03/18 01:15:22;;;;;;;4.27;2.60;;;10.30;98.50;;;;;;477964;249;28068;-75
2023/03/18 01:17:24;;;;;;;4.40;2.63;;;10.30;98.50;;;;;;478079;249;28140;-75
2023/03/18 01:19:25;;;;;;;4.63;2.60;;;10.20;99.30;;;;;;478043;249;27927;-75
2023/03/18 01:21:26;;;;;;;3.53;2.60;;;10.30;99.10;;;;;;478092;249;28459;-75
2023/03/18 01:23:29;;;;;;;3.40;2.63;;;10.30;99.30;;;;;;478062;249;27967;-75
2023/03/18 01:25:28;;;;;;;4.80;2.60;;;10.30;99.90;;;;;;477995;249;27934;-75
2023/03/18 01:27:30;;;;;;;2.53;2.00;;;10.30;99.90;;;;;;478071;249;28003;-75
2023/03/18 01:29:31;;;;;;;13.40;4.90;;;10.30;99.90;;;;;;478031;249;27844;-75
2023/03/18 01:31:34;;;;;;;7.80;4.07;;;10.20;99.90;;;;;;478062;249;28723;-75
2023/03/18 01:33:34;;;;;;;5.83;3.00;;;10.20;99.90;;;;;;477961;249;28491;-75
2023/03/18 01:35:35;;;;;;;7.30;2.80;;;10.20;99.90;;;;;;477998;249;28438;-75
2023/03/18 01:37:36;;;;;;;4.83;3.13;;;10.20;99.90;;;;;;478050;249;28383;-75
2023/03/18 01:39:38;;;;;;;5.63;3.00;;;10.10;99.90;;;;;;478015;249;28014;-75
2023/03/18 01:41:39;;;;;;;5.10;2.60;;;10.20;99.90;;;;;;478027;249;28097;-75
2023/03/18 01:43:40;;;;;;;4.47;2.13;;;10.20;99.90;;;;;;477996;249;27983;-75
2023/03/18 01:45:41;;;;;;;4.87;2.50;;;10.20;99.90;;;;;;477962;249;27826;-75
2023/03/18 01:47:43;;;;;;;4.13;2.30;;;10.20;99.90;;;;;;478008;249;28018;-75
2023/03/18 01:49:44;;;;;;;4.90;2.47;;;10.20;99.90;;;;;;477934;249;28116;-75
2023/03/18 01:51:45;;;;;;;5.33;2.30;;;10.10;99.90;;;;;;477972;249;27993;-75
2023/03/18 01:53:46;;;;;;;2.60;2.00;;;10.20;99.90;;;;;;477966;249;28379;-75
2023/03/18 01:55:47;;;;;;;3.00;2.20;;;10.10;99.90;;;;;;477958;249;28466;-75
2023/03/18 01:57:49;;;;;;;2.80;1.80;;;10.10;99.90;;;;;;478068;249;28462;-75
2023/03/18 01:59:50;;;;;;;4.63;1.90;;;10.10;99.90;;;;;;478096;248;28316;-75
2023/03/18 02:01:51;;;;;;;7.00;2.47;;;10.10;99.90;;;;;;477981;248;28344;-75
2023/03/18 02:03:53;;;;;;;4.00;2.10;;;10.10;99.90;;;;;;478085;248;27925;-75
2023/03/18 02:05:54;;;;;;;3.57;2.10;;;10.10;99.90;;;;;;478072;248;27851;-75
2023/03/18 02:07:55;;;;;;;2.50;1.93;;;10.10;99.90;;;;;;477963;249;27888;-75
2023/03/18 02:09:56;;;;;;;2.70;1.97;;;10.10;99.90;;;;;;478021;249;28335;-75
2023/03/18 02:11:57;;;;;;;4.00;2.10;;;10.10;99.90;;;;;;478009;248;28028;-75
2023/03/18 02:13:59;;;;;;;2.50;1.93;;;10.00;99.90;;;;;;478047;248;28054;-75
2023/03/18 02:16:00;;;;;;;3.90;2.50;;;10.10;99.90;;;;;;478063;248;27975;-75
2023/03/18 02:18:01;;;;;;;5.67;2.07;;;10.10;99.90;;;;;;477957;248;28064;-75
2023/03/18 02:20:02;;;;;;;3.77;2.20;;;10.20;99.90;;;;;;478046;248;27961;-75
2023/03/18 02:22:04;;;;;;;5.93;2.73;;;10.20;99.80;;;;;;478022;248;28614;-75
2023/03/18 02:24:05;;;;;;;4.67;2.80;;;10.30;99.10;;;;;;478000;248;28600;-75
2023/03/18 02:26:07;;;;;;;6.60;2.83;;;10.30;98.90;;;;;;478049;248;28738;-75
2023/03/18 02:28:08;;;;;;;4.53;2.70;;;10.30;98.50;;;;;;477998;248;27782;-75
2023/03/18 02:30:09;;;;;;;5.23;3.20;;;10.30;97.60;;;;;;478066;248;27863;-74
2023/03/18 02:32:10;;;;;;;8.33;4.83;;;10.40;97.30;;;;;;478021;248;28171;-74
2023/03/18 02:34:11;;;;;;;3.77;2.90;;;10.40;96.60;;;;;;477945;248;28027;-75
2023/03/18 02:36:12;;;;;;;9.60;4.97;;;10.40;96.50;;;;;;477900;249;27987;-75
2023/03/18 02:38:14;;;;;;;11.40;4.70;;;10.40;96.10;;;;;;477906;248;27894;-74
2023/03/18 02:40:15;;;;;;;11.33;5.97;;;10.40;96.10;;;;;;477983;248;27955;-75
2023/03/18 02:42:17;;;;;;;8.43;4.13;;;10.40;95.80;;;;;;478031;248;28415;-75
2023/03/18 02:44:17;;;;;;;9.33;5.00;;;10.40;95.80;;;;;;477913;248;28583;-75
2023/03/18 02:46:19;;;;;;;7.07;3.90;;;10.40;95.70;;;;;;477875;249;28529;-75
2023/03/18 02:48:20;;;;;;;11.70;5.60;;;10.40;95.70;;;;;;477857;248;28511;-75
2023/03/18 02:50:21;;;;;;;10.63;5.03;;;10.40;95.70;;;;;;477529;248;27812;-75
2023/03/18 02:52:22;;;;;;;14.13;7.20;;;10.40;95.80;;;;;;477422;248;27717;-76
2023/03/18 02:54:24;;;;;;;12.63;6.40;;;10.40;95.30;;;;;;477576;248;28156;-75
2023/03/18 02:56:25;;;;;;;10.17;5.10;;;10.40;95.20;;;;;;477714;248;28440;-75
2023/03/18 02:58:26;;;;;;;10.00;5.90;;;10.40;95.50;;;;;;478030;248;28509;-76
2023/03/18 03:00:27;;;;;;;8.50;4.60;;;10.30;95.30;;;;;;477982;248;28174;-75
2023/03/18 03:02:29;;;;;;;8.60;5.00;;;10.30;95.60;;;;;;478030;248;28114;-75
2023/03/18 03:04:30;;;;;;;8.00;4.80;;;10.30;95.50;;;;;;478021;248;28696;-76
2023/03/18 03:06:31;;;;;;;7.77;4.80;;;10.30;95.40;;;;;;477993;248;28605;-75
2023/03/18 03:08:32;;;;;;;8.07;3.70;;;10.30;95.00;;;;;;478058;248;28457;-75
2023/03/18 03:10:34;;;;;;;6.03;3.93;;;10.30;95.10;;;;;;477987;248;28529;-75
2023/03/18 03:12:36;;;;;;;5.87;3.33;;;10.30;94.70;;;;;;478044;248;28208;-75
2023/03/18 03:14:36;;;;;;;4.77;3.30;;;10.40;94.20;;;;;;477994;248;28408;-75
2023/03/18 03:16:37;;;;;;;4.50;3.60;;;10.30;94.40;;;;;;478008;248;27957;-75
2023/03/18 03:18:39;;;;;;;4.33;2.80;;;10.30;94.50;;;;;;478036;248;28105;-75
2023/03/18 03:20:40;;;;;;;3.80;2.97;;;10.20;94.40;;;;;;478030;248;28030;-75
2023/03/18 03:22:41;;;;;;;5.20;3.40;;;10.20;93.90;;;;;;477914;249;27856;-75
2023/03/18 03:24:43;;;;;;;7.00;3.53;;;10.20;94.10;;;;;;477925;249;28087;-75
2023/03/18 03:26:44;;;;;;;27.77;13.77;;;10.20;93.60;;;;;;477978;248;28123;-75
2023/03/18 03:28:45;;;;;;;58.70;33.37;;;10.20;93.70;;;;;;478083;248;28714;-75
2023/03/18 03:30:46;;;;;;;15.00;8.20;;;10.20;93.60;;;;;;478088;248;28959;-75
2023/03/18 03:32:47;;;;;;;12.07;5.40;;;10.20;93.60;;;;;;478024;248;27872;-75
2023/03/18 03:34:49;;;;;;;8.50;4.80;;;10.20;93.60;;;;;;478071;248;28004;-75
2023/03/18 03:36:50;;;;;;;13.17;8.40;;;10.20;93.50;;;;;;478069;248;28060;-75
2023/03/18 03:38:51;;;;;;;8.50;5.80;;;10.20;93.30;;;;;;478012;248;28098;-75
2023/03/18 03:40:53;;;;;;;17.23;10.47;;;10.20;93.50;;;;;;478051;248;28166;-75
2023/03/18 03:42:54;;;;;;;19.30;10.07;;;10.20;93.60;;;;;;477961;248;28122;-75
2023/03/18 03:44:55;;;;;;;12.10;6.53;;;10.10;93.80;;;;;;478018;248;28068;-75
2023/03/18 03:46:56;;;;;;;16.60;9.37;;;10.10;94.20;;;;;;478043;248;28630;-75
2023/03/18 03:48:57;;;;;;;11.90;7.30;;;10.00;94.20;;;;;;477979;248;28492;-75
2023/03/18 03:50:59;;;;;;;14.13;9.13;;;10.00;94.30;;;;;;478043;248;27894;-75
2023/03/18 03:53:01;;;;;;;11.00;7.03;;;9.90;94.40;;;;;;478037;248;28107;-75
2023/03/18 03:55:01;;;;;;;11.80;7.53;;;9.90;94.50;;;;;;477955;248;28200;-75
2023/03/18 03:57:03;;;;;;;6.53;3.30;;;9.80;94.60;;;;;;478030;248;28053;-75
2023/03/18 03:59:04;;;;;;;5.40;3.70;;;9.80;94.90;;;;;;478004;248;27893;-75
2023/03/18 04:01:05;;;;;;;4.50;3.20;;;9.70;95.20;;;;;;477936;248;28211;-75
2023/03/18 04:03:06;;;;;;;5.40;3.63;;;9.60;95.50;;;;;;478019;249;27800;-75
2023/03/18 04:05:07;;;;;;;5.33;3.17;;;9.60;95.70;;;;;;477971;248;27642;-75
2023/03/18 04:07:09;;;;;;;4.43;3.60;;;9.60;95.10;;;;;;478036;248;27722;-75
2023/03/18 04:09:10;;;;;;;6.10;3.40;;;9.60;95.20;;;;;;478021;248;28036;-75
2023/03/18 04:11:11;;;;;;;5.73;3.47;;;9.50;95.40;;;;;;477997;249;28027;-75
2023/03/18 04:13:12;;;;;;;5.73;3.67;;;9.60;95.20;;;;;;477985;249;28610;-75
2023/03/18 04:15:14;;;;;;;5.80;3.60;;;9.50;95.10;;;;;;478002;248;28469;-75
2023/03/18 04:17:15;;;;;;;5.17;3.50;;;9.50;95.10;;;;;;477977;249;28436;-75
2023/03/18 04:19:17;;;;;;;4.83;2.80;;;9.50;95.10;;;;;;477991;248;28656;-75
2023/03/18 04:21:17;;;;;;;9.07;2.67;;;9.50;95.10;;;;;;477929;248;28513;-74
2023/03/18 04:23:19;;;;;;;4.50;2.77;;;9.50;95.20;;;;;;477979;249;27957;-75
2023/03/18 04:25:21;;;;;;;4.33;2.97;;;9.50;95.00;;;;;;478032;248;27966;-75
2023/03/18 04:27:21;;;;;;;3.20;2.30;;;9.60;94.80;;;;;;477992;248;28036;-75
2023/03/18 04:29:22;;;;;;;2.37;2.17;;;9.60;95.00;;;;;;478044;248;28079;-75
2023/03/18 04:31:24;;;;;;;4.10;2.30;;;9.60;95.30;;;;;;478010;249;27996;-75
2023/03/18 04:33:25;;;;;;;2.10;1.80;;;9.60;95.40;;;;;;478019;248;28061;-75
2023/03/18 04:35:27;;;;;;;3.60;2.07;;;9.60;95.40;;;;;;477641;249;27879;-75
2023/03/18 04:37:28;;;;;;;3.40;2.30;;;9.60;95.10;;;;;;477979;248;28006;-75
2023/03/18 04:39:29;;;;;;;4.07;2.00;;;9.60;95.00;;;;;;478011;248;28036;-75
2023/03/18 04:41:30;;;;;;;2.70;2.20;;;9.70;95.00;;;;;;478011;249;28128;-75
2023/03/18 04:43:31;;;;;;;1.93;1.80;;;9.70;94.80;;;;;;477981;248;27983;-75
2023/03/18 04:45:32;;;;;;;4.70;1.90;;;9.70;94.60;;;;;;478028;248;27649;-75
2023/03/18 04:47:34;;;;;;;1.97;1.60;;;9.80;94.00;;;;;;478062;248;27822;-75
2023/03/18 04:49:45;;;;;;;2.57;1.87;;;9.80;94.40;;;;;;477868;248;28168;-76
2023/03/18 04:51:47;;;;;;;2.43;2.10;;;9.80;94.10;;;;;;477922;249;27996;-75
2023/03/18 04:53:48;;;;;;;3.87;1.80;;;9.80;94.00;;;;;;477996;248;27970;-75
2023/03/18 04:55:50;;;;;;;2.23;1.90;;;9.90;94.20;;;;;;478048;248;28081;-75
2023/03/18 04:57:50;;;;;;;4.20;1.70;;;9.90;93.60;;;;;;478005;248;28248;-75
2023/03/18 04:59:52;;;;;;;2.03;1.40;;;9.90;93.90;;;;;;477985;248;28520;-74
2023/03/18 05:01:53;;;;;;;3.07;1.50;;;10.00;94.00;;;;;;477936;248;28503;-75
2023/03/18 05:03:54;;;;;;;1.80;1.70;;;10.00;93.30;;;;;;477981;249;28124;-75
2023/03/18 05:05:55;;;;;;;2.20;1.60;;;10.00;93.50;;;;;;477958;248;28058;-75
2023/03/18 05:07:57;;;;;;;9.00;1.97;;;10.00;93.80;;;;;;477979;248;28118;-75
2023/03/18 05:09:58;;;;;;;2.30;1.50;;;10.00;93.70;;;;;;477981;248;28123;-75
2023/03/18 05:11:59;;;;;;;2.87;1.90;;;10.00;93.30;;;;;;478037;248;27903;-75
2023/03/18 05:14:00;;;;;;;3.20;1.87;;;10.00;92.60;;;;;;478049;248;28042;-75
2023/03/18 05:16:03;;;;;;;1.83;1.70;;;10.00;92.60;;;;;;478020;248;28065;-75
2023/03/18 05:18:03;;;;;;;1.90;1.63;;;10.00;92.70;;;;;;478015;248;28168;-75
2023/03/18 05:20:04;;;;;;;1.57;1.47;;;10.00;93.70;;;;;;478003;248;27824;-75
2023/03/18 05:22:05;;;;;;;3.07;1.93;;;10.00;93.50;;;;;;477953;248;28512;-75
2023/03/18 05:24:07;;;;;;;3.63;1.40;;;10.00;93.40;;;;;;478078;248;28631;-75
2023/03/18 05:26:10;;;;;;;1.50;1.37;;;10.00;93.70;;;;;;477996;248;28676;-75
2023/03/18 05:28:10;;;;;;;3.80;1.93;;;9.90;93.50;;;;;;477980;249;28010;-75
2023/03/18 05:30:11;;;;;;;1.80;1.70;;;9.90;93.70;;;;;;478003;249;27997;-75
2023/03/18 05:32:13;;;;;;;4.30;1.93;;;9.90;93.40;;;;;;478020;248;28073;-75
2023/03/18 05:34:13;;;;;;;2.07;1.53;;;9.90;92.70;;;;;;478017;248;27971;-75
2023/03/18 05:36:14;;;;;;;3.77;1.97;;;9.90;93.50;;;;;;478083;248;27957;-75
2023/03/18 05:38:15;;;;;;;3.83;1.87;;;9.90;94.00;;;;;;478026;248;28009;-75
2023/03/18 05:40:17;;;;;;;2.70;1.60;;;9.80;93.60;;;;;;478052;248;27909;-75
2023/03/18 05:42:18;;;;;;;2.93;1.70;;;9.80;93.10;;;;;;477995;248;27780;-75
2023/03/18 05:44:19;;;;;;;2.33;1.43;;;9.80;92.70;;;;;;478037;248;28076;-75
2023/03/18 05:46:21;;;;;;;3.23;1.90;;;9.80;93.30;;;;;;478076;248;27970;-75
2023/03/18 05:48:22;;;;;;;2.40;1.63;;;9.70;92.90;;;;;;477990;248;28008;-74
2023/03/18 05:50:23;;;;;;;2.70;1.70;;;9.70;92.90;;;;;;477804;249;27960;-75
2023/03/18 05:52:24;;;;;;;4.30;1.77;;;9.60;92.80;;;;;;478061;248;27992;-74
2023/03/18 05:54:25;;;;;;;3.00;1.80;;;9.60;92.30;;;;;;478035;248;28020;-75
2023/03/18 05:56:27;;;;;;;2.43;1.90;;;9.60;92.50;;;;;;478068;248;28707;-75
2023/03/18 05:58:30;;;;;;;1.73;1.63;;;9.50;92.30;;;;;;478042;248;28509;-75
2023/03/18 06:00:29;;;;;;;5.73;1.87;;;9.50;92.20;;;;;;477978;249;28411;-75
2023/03/18 06:02:31;;;;;;;2.80;1.80;;;9.50;92.00;;;;;;478054;248;28712;-75
2023/03/18 06:04:32;;;;;;;2.00;1.57;;;9.40;92.30;;;;;;478004;248;28498;-75
2023/03/18 06:06:34;;;;;;;1.60;1.50;;;9.40;92.40;;;;;;478069;248;27628;-74
2023/03/18 06:08:34;;;;;;;3.90;1.63;;;9.40;92.40;;;;;;477515;248;27762;-75
2023/03/18 06:10:35;;;;;;;3.70;2.20;;;9.30;92.40;;;;;;477416;248;27837;-74
2023/03/18 06:12:37;;;;;;;4.17;2.10;;;9.30;92.20;;;;;;477469;248;27681;-74
2023/03/18 06:14:38;;;;;;;1.80;1.60;;;9.30;92.10;;;;;;477448;248;27922;-75
2023/03/18 06:16:40;;;;;;;2.70;1.37;;;9.30;92.10;;;;;;477406;248;27598;-75
2023/03/18 06:18:40;;;;;;;4.27;1.63;;;9.30;91.90;;;;;;477387;249;27877;-75
2023/03/18 06:20:42;;;;;;;1.87;1.50;;;9.30;92.00;;;;;;477424;248;27894;-74
2023/03/18 06:22:47;;;;;;;2.07;1.70;;;9.30;92.00;;;;;;477433;248;27890;-75
2023/03/18 06:24:44;;;;;;;1.97;1.50;;;9.30;91.80;;;;;;477209;249;27784;-75
2023/03/18 06:26:45;;;;;;;1.53;1.43;;;9.30;91.80;;;;;;477413;248;27766;-75
2023/03/18 06:28:47;;;;;;;3.90;1.80;;;9.30;91.70;;;;;;477451;248;27567;-74
2023/03/18 06:30:48;;;;;;;2.40;1.80;;;9.40;91.10;;;;;;477420;249;27810;-75
2023/03/18 06:32:49;;;;;;;1.73;1.53;;;9.40;91.50;;;;;;477393;248;27712;-75
2023/03/18 06:34:51;;;;;;;3.37;1.77;;;9.40;91.80;;;;;;477367;249;27635;-75
2023/03/18 06:36:52;;;;;;;2.97;1.50;;;9.40;91.50;;;;;;477301;248;28415;-75
2023/03/18 06:38:53;;;;;;;2.90;1.60;;;9.30;91.70;;;;;;477344;248;28496;-75
2023/03/18 06:40:55;;;;;;;2.07;1.80;;;9.30;91.50;;;;;;477330;248;28500;-75
2023/03/18 06:42:55;;;;;;;4.70;1.97;;;9.30;91.20;;;;;;477185;249;28404;-75
2023/03/18 06:44:57;;;;;;;3.37;1.67;;;9.30;91.40;;;;;;477348;248;28395;-75
2023/03/18 06:46:58;;;;;;;2.37;1.90;;;9.30;91.40;;;;;;477721;248;27644;-75
2023/03/18 06:49:00;;;;;;;1.87;1.70;;;9.30;91.00;;;;;;478668;248;27973;-75
2023/03/18 06:51:00;;;;;;;2.20;1.40;;;9.30;91.00;;;;;;478692;248;27822;-76
2023/03/18 06:53:02;;;;;;;2.47;1.83;;;9.30;91.10;;;;;;478010;248;27964;-75
2023/03/18 06:55:03;;;;;;;1.90;1.70;;;9.30;91.20;;;;;;478000;248;27816;-75
2023/03/18 06:57:05;;;;;;;2.27;1.70;;;9.30;91.10;;;;;;478332;248;27956;-74
2023/03/18 06:59:06;;;;;;;11.90;6.30;;;9.30;90.70;;;;;;478717;248;28136;-74
2023/03/18 07:01:07;;;;;;;5.60;3.60;;;9.40;90.60;;;;;;478697;248;27869;-75
2023/03/18 07:03:08;;;;;;;4.03;3.43;;;9.40;90.30;;;;;;477975;248;27776;-75
2023/03/18 07:05:09;;;;;;;3.30;3.00;;;9.40;90.30;;;;;;477949;248;27705;-75
2023/03/18 07:07:11;;;;;;;8.30;7.50;;;9.50;88.40;;;;;;477936;249;28066;-75
2023/03/18 07:09:14;;;;;;;4.63;4.23;;;9.60;89.00;;;;;;479519;244;27762;-75
2023/03/18 07:11:13;;;;;;;3.63;2.60;;;9.60;88.80;;;;;;481970;242;27894;-76
2023/03/18 07:13:14;;;;;;;4.93;3.33;;;9.60;89.30;;;;;;476624;244;28174;-76
2023/03/18 07:15:16;;;;;;;3.80;3.50;;;9.60;89.20;;;;;;476344;249;27835;-75
2023/03/18 07:17:17;;;;;;;3.10;2.73;;;9.70;87.70;;;;;;475996;249;27930;-75
2023/03/18 07:19:18;;;;;;;3.70;2.63;;;9.70;87.90;;;;;;475966;249;28109;-76
2023/03/18 07:21:19;;;;;;;5.90;4.80;;;9.80;87.60;;;;;;476003;249;28313;-75
2023/03/18 07:23:21;;;;;;;5.33;3.20;;;9.80;87.00;;;;;;475971;249;28755;-76
2023/03/18 07:25:22;;;;;;;4.40;4.10;;;9.90;85.50;;;;;;481394;244;29187;-76
2023/03/18 07:27:23;;;;;;;8.57;5.73;;;10.10;84.10;;;;;;479552;244;28334;-76
2023/03/18 07:29:24;;;;;;;4.80;3.30;;;10.30;83.40;;;;;;478957;248;28466;-76
2023/03/18 07:31:26;;;;;;;4.23;3.20;;;10.40;83.40;;;;;;479278;248;27949;-76
2023/03/18 07:33:27;;;;;;;6.60;3.00;;;10.50;83.00;;;;;;479289;248;27876;-77
2023/03/18 07:35:28;;;;;;;4.07;2.00;;;10.50;82.60;;;;;;479262;248;28145;-76
2023/03/18 07:37:30;;;;;;;3.27;2.77;;;10.50;82.00;;;;;;479257;248;28071;-76
2023/03/18 07:39:31;;;;;;;3.47;2.40;;;10.70;81.80;;;;;;479203;248;28109;-76
2023/03/18 07:41:32;;;;;;;2.23;1.63;;;10.70;82.70;;;;;;479279;248;28150;-75
2023/03/18 07:43:34;;;;;;;9.40;8.40;;;10.70;82.30;;;;;;479261;248;28738;-75
2023/03/18 07:45:34;;;;;;;6.23;3.97;;;10.80;80.70;;;;;;479207;248;28660;-75
2023/03/18 07:47:36;;;;;;;3.70;2.53;;;10.70;80.70;;;;;;479291;248;28676;-76
2023/03/18 07:49:37;;;;;;;3.33;2.30;;;10.70;81.90;;;;;;479267;248;28962;-76
2023/03/18 07:51:38;;;;;;;4.10;1.73;;;10.70;82.40;;;;;;479176;248;28201;-76
2023/03/18 07:53:39;;;;;;;4.07;2.83;;;10.80;83.40;;;;;;479298;248;28230;-75
2023/03/18 07:55:43;;;;;;;5.03;2.00;;;;;;;;;;479288;248;28366;-75
2023/03/18 07:57:43;;;;;;;13.53;9.70;;;10.80;82.00;;;;;;479126;248;27235;-76
2023/03/18 07:59:44;;;;;;;8.77;7.03;;;10.80;80.60;;;;;;479287;245;28080;-75
2023/03/18 08:01:46;;;;;;;10.30;5.00;;;10.90;79.70;;;;;;479217;248;28220;-75
2023/03/18 08:03:47;;;;;;;5.40;3.00;;;11.00;79.30;;;;;;478877;243;28245;-75
2023/03/18 08:05:48;;;;;;;7.07;2.43;;;11.00;79.30;;;;;;477560;243;28629;-75
2023/03/18 08:07:49;;;;;;;3.70;2.00;;;11.10;79.80;;;;;;477472;249;28955;-75
2023/03/18 08:09:51;;;;;;;3.60;2.50;;;11.10;80.00;;;;;;477361;249;28831;-75
2023/03/18 08:11:52;;;;;;;19.00;12.27;;;11.10;78.90;;;;;;477366;248;28620;-75
2023/03/18 08:13:53;;;;;;;32.30;24.10;;;11.10;79.00;;;;;;475788;242;28161;-74
2023/03/18 08:15:55;;;;;;;13.13;10.10;;;11.10;79.30;;;;;;474980;248;28329;-75
2023/03/18 08:17:56;;;;;;;5.50;2.60;;;11.20;79.30;;;;;;474164;250;28329;-75
2023/03/18 08:19:57;;;;;;;4.90;2.90;;;11.20;78.80;;;;;;475340;248;28053;-75
2023/03/18 08:21:58;;;;;;;5.10;3.70;;;11.30;79.30;;;;;;491723;241;28099;-75
2023/03/18 08:23:59;;;;;;;6.53;2.50;;;11.30;79.00;;;;;;491784;242;28633;-75
2023/03/18 08:26:01;;;;;;;7.07;2.60;;;11.40;80.30;;;;;;491615;242;28753;-75
2023/03/18 08:28:02;;;;;;;2.60;1.97;;;11.40;78.50;;;;;;491768;242;28580;-75
2023/03/18 08:30:03;;;;;;;6.97;4.90;;;11.40;78.90;;;;;;491771;240;28161;-76
2023/03/18 08:32:04;;;;;;;11.47;7.40;;;11.50;80.00;;;;;;491846;242;28319;-75
2023/03/18 08:34:06;;;;;;;9.10;5.03;;;11.60;77.60;;;;;;491836;242;28119;-75
2023/03/18 08:36:07;;;;;;;9.57;5.50;;;11.70;77.30;;;;;;491801;242;28294;-75
2023/03/18 08:38:08;;;;;;;4.07;2.47;;;11.70;76.60;;;;;;491862;242;28132;-75
2023/03/18 08:40:10;;;;;;;2.63;2.43;;;11.70;76.60;;;;;;491854;242;28273;-75
2023/03/18 08:42:11;;;;;;;4.00;2.63;;;11.70;76.10;;;;;;491783;242;28458;-75
2023/03/18 08:44:12;;;;;;;2.00;1.60;;;11.70;76.10;;;;;;491794;242;28357;-75
2023/03/18 08:46:13;;;;;;;5.70;2.07;;;11.70;77.90;;;;;;491853;242;28869;-75
2023/03/18 08:48:14;;;;;;;4.50;1.70;;;11.70;78.20;;;;;;491803;242;28949;-75
2023/03/18 08:50:16;;;;;;;1.83;1.43;;;11.70;76.80;;;;;;489992;240;28665;-75
2023/03/18 08:52:17;;;;;;;1.77;1.43;;;11.70;77.00;;;;;;488362;242;28062;-75
2023/03/18 08:54:19;;;;;;;4.40;1.83;;;11.70;78.10;;;;;;488468;240;28157;-75
2023/03/18 08:56:20;;;;;;;4.30;1.97;;;11.70;78.30;;;;;;488408;243;28288;-75
2023/03/18 08:58:21;;;;;;;5.03;1.70;;;11.80;77.20;;;;;;488333;243;28422;-75
2023/03/18 09:00:23;;;;;;;2.10;1.80;;;11.80;77.30;;;;;;488678;240;28301;-75
2023/03/18 09:02:23;;;;;;;2.10;1.73;;;11.90;78.30;;;;;;488665;243;27994;-75
2023/03/18 09:04:25;;;;;;;2.37;1.50;;;11.90;79.30;;;;;;488517;239;28606;-73
2023/03/18 09:06:26;;;;;;;3.80;1.87;;;12.10;78.70;;;;;;484267;237;28823;-76
2023/03/18 09:08:29;;;;;;;7.10;4.10;;;;;;;;;;489369;241;29198;-73
2023/03/18 09:10:30;;;;;;;5.60;2.70;;;12.30;76.70;;;;;;489760;240;27386;-75
2023/03/18 09:12:31;;;;;;;6.93;3.37;;;12.40;76.10;;;;;;489748;241;29335;-75
2023/03/18 09:14:33;;;;;;;6.77;3.80;;;12.50;75.20;;;;;;485443;238;28562;-75
2023/03/18 09:16:34;;;;;;;6.60;4.07;;;12.60;74.40;;;;;;473874;251;28923;-74
2023/03/18 09:18:36;;;;;;;4.93;2.80;;;;;;;;;;473990;251;28370;-75
2023/03/18 09:20:38;;;;;;;6.53;3.40;;;12.70;73.50;;;;;;473704;250;26424;-75
2023/03/18 09:22:38;;;;;;;4.37;3.00;;;12.90;74.20;;;;;;474018;251;28418;-75
2023/03/18 09:24:40;;;;;;;4.83;2.47;;;12.90;73.70;;;;;;474051;251;28181;-75
2023/03/18 09:26:41;;;;;;;9.93;6.77;;;12.90;72.70;;;;;;473987;251;28892;-75
2023/03/18 09:28:42;;;;;;;9.20;6.90;;;13.00;71.20;;;;;;474049;251;28876;-75
2023/03/18 09:30:43;;;;;;;5.63;1.97;;;13.10;69.80;;;;;;474070;251;28188;-75
2023/03/18 09:32:45;;;;;;;3.30;2.20;;;13.00;70.90;;;;;;474007;251;28706;-75
2023/03/18 09:34:46;;;;;;;5.93;1.90;;;13.00;76.10;;;;;;474041;251;28653;-75
2023/03/18 09:36:49;;;;;;;6.40;1.80;;;13.00;73.20;;;;;;474044;251;29067;-75
2023/03/18 09:38:48;;;;;;;4.87;2.30;;;13.00;72.00;;;;;;473841;251;28739;-75
2023/03/18 09:40:50;;;;;;;2.20;2.00;;;13.00;71.80;;;;;;474056;251;28391;-75
2023/03/18 09:42:51;;;;;;;2.30;1.70;;;13.10;72.60;;;;;;474035;251;28143;-75
2023/03/18 09:44:52;;;;;;;2.13;1.70;;;13.10;73.90;;;;;;473998;251;28185;-75
2023/03/18 09:46:53;;;;;;;4.20;1.77;;;13.10;72.20;;;;;;475231;249;28363;-75
2023/03/18 09:48:55;;;;;;;2.60;1.87;;;13.10;70.80;;;;;;482870;246;28566;-75
2023/03/18 09:50:56;;;;;;;3.40;1.70;;;13.10;71.80;;;;;;484852;244;28594;-75
2023/03/18 09:52:57;;;;;;;4.60;2.00;;;13.20;73.80;;;;;;479136;248;28656;-75
2023/03/18 09:54:58;;;;;;;3.80;1.70;;;13.30;73.40;;;;;;479055;248;28586;-75
2023/03/18 09:57:00;;;;;;;3.63;2.60;;;13.40;73.00;;;;;;479360;248;28825;-75
2023/03/18 09:59:04;;;;;;;1.97;1.70;;;13.60;71.80;;;;;;479352;248;29196;-75
2023/03/18 10:01:02;;;;;;;2.77;1.57;;;13.70;70.50;;;;;;478976;248;29407;-75
2023/03/18 10:03:03;;;;;;;6.67;1.80;;;13.70;70.10;;;;;;479371;248;28754;-75
2023/03/18 10:05:05;;;;;;;2.80;1.60;;;13.90;74.70;;;;;;479359;248;28765;-75
2023/03/18 10:07:06;;;;;;;3.00;2.00;;;13.80;69.10;;;;;;479324;248;28259;-75
2023/03/18 10:09:07;;;;;;;3.33;2.03;;;13.70;70.00;;;;;;479378;248;28524;-75
2023/03/18 10:11:08;;;;;;;1.87;1.60;;;13.70;71.50;;;;;;479339;248;28412;-75
2023/03/18 10:13:10;;;;;;;5.27;1.70;;;13.70;72.60;;;;;;479363;248;28410;-75
2023/03/18 10:15:11;;;;;;;8.03;5.90;;;13.70;69.10;;;;;;479344;248;28872;-75
2023/03/18 10:17:12;;;;;;;7.40;4.50;;;13.80;71.80;;;;;;479318;248;28796;-75
2023/03/18 10:19:14;;;;;;;4.80;2.90;;;13.90;71.10;;;;;;479267;248;28449;-75
2023/03/18 10:21:15;;;;;;;4.17;3.03;;;14.00;70.30;;;;;;479108;248;28964;-75
2023/03/18 10:23:16;;;;;;;7.30;5.27;;;14.00;69.10;;;;;;479127;248;29079;-75
2023/03/18 10:25:17;;;;;;;2.57;2.00;;;14.10;69.40;;;;;;479415;235;29297;-75
2023/03/18 10:27:19;;;;;;;2.90;1.50;;;14.20;70.90;;;;;;479348;248;29144;-75
2023/03/18 10:29:20;;;;;;;5.37;2.50;;;14.30;67.90;;;;;;479384;248;29407;-74
2023/03/18 10:31:22;;;;;;;6.77;3.73;;;14.60;70.80;;;;;;479439;248;29404;-75
2023/03/18 10:33:23;;;;;;;1.80;1.70;;;14.70;69.50;;;;;;479394;248;28963;-74